sensor_id;sensor_type;location;lat;lon;timestamp;P1;durP1;ratioP1;P2;durP2;ratioP2
49828;SDS011;35723;51.194;5.112;2022-10-16T00:01:14;6.22;;;2.70;;
49828;SDS011;35723;51.194;5.112;2022-10-16T00:03:41;7.68;;;2.58;;
49828;SDS011;35723;51.194;5.112;2022-10-16T00:06:08;11.10;;;2.70;;
49828;SDS011;35723;51.194;5.112;2022-10-16T00:08:35;6.38;;;2.88;;
49828;SDS011;35723;51.194;5.112;2022-10-16T00:11:05;5.63;;;2.20;;
49828;SDS011;35723;51.194;5.112;2022-10-16T00:13:33;9.38;;;2.80;;
49828;SDS011;35723;51.194;5.112;2022-10-16T00:16:00;7.55;;;2.60;;
49828;SDS011;35723;51.194;5.112;2022-10-16T00:18:27;6.95;;;2.70;;
49828;SDS011;35723;51.194;5.112;2022-10-16T00:20:53;8.98;;;2.70;;
49828;SDS011;35723;51.194;5.112;2022-10-16T00:23:20;7.45;;;2.50;;
49828;SDS011;35723;51.194;5.112;2022-10-16T00:25:56;7.40;;;2.58;;
49828;SDS011;35723;51.194;5.112;2022-10-16T00:28:23;9.93;;;2.55;;
49828;SDS011;35723;51.194;5.112;2022-10-16T00:30:49;7.40;;;2.30;;
49828;SDS011;35723;51.194;5.112;2022-10-16T00:33:15;7.90;;;2.47;;
49828;SDS011;35723;51.194;5.112;2022-10-16T00:35:40;5.40;;;2.60;;
49828;SDS011;35723;51.194;5.112;2022-10-16T00:38:06;7.43;;;2.55;;
49828;SDS011;35723;51.194;5.112;2022-10-16T00:40:32;7.63;;;2.97;;
49828;SDS011;35723;51.194;5.112;2022-10-16T00:42:58;8.00;;;2.70;;
49828;SDS011;35723;51.194;5.112;2022-10-16T00:45:23;16.15;;;2.47;;
49828;SDS011;35723;51.194;5.112;2022-10-16T00:47:49;8.32;;;2.60;;
49828;SDS011;35723;51.194;5.112;2022-10-16T00:52:55;9.07;;;2.25;;
49828;SDS011;35723;51.194;5.112;2022-10-16T00:55:22;8.57;;;2.40;;
49828;SDS011;35723;51.194;5.112;2022-10-16T00:57:49;16.08;;;2.65;;
49828;SDS011;35723;51.194;5.112;2022-10-16T01:00:18;6.80;;;2.40;;
49828;SDS011;35723;51.194;5.112;2022-10-16T01:02:52;5.07;;;2.22;;
49828;SDS011;35723;51.194;5.112;2022-10-16T01:05:22;5.28;;;2.03;;
49828;SDS011;35723;51.194;5.112;2022-10-16T01:08:03;9.55;;;2.30;;
49828;SDS011;35723;51.194;5.112;2022-10-16T01:10:37;7.07;;;2.45;;
49828;SDS011;35723;51.194;5.112;2022-10-16T01:13:07;7.32;;;2.40;;
49828;SDS011;35723;51.194;5.112;2022-10-16T01:15:47;7.45;;;2.40;;
49828;SDS011;35723;51.194;5.112;2022-10-16T01:18:19;7.78;;;2.80;;
49828;SDS011;35723;51.194;5.112;2022-10-16T01:21:03;6.72;;;2.55;;
49828;SDS011;35723;51.194;5.112;2022-10-16T01:29:22;5.45;;;2.40;;
49828;SDS011;35723;51.194;5.112;2022-10-16T01:31:59;7.63;;;2.03;;
49828;SDS011;35723;51.194;5.112;2022-10-16T01:34:33;5.05;;;2.13;;
49828;SDS011;35723;51.194;5.112;2022-10-16T01:37:13;8.25;;;2.17;;
49828;SDS011;35723;51.194;5.112;2022-10-16T01:39:45;7.50;;;2.10;;
49828;SDS011;35723;51.194;5.112;2022-10-16T01:42:16;4.15;;;1.90;;
49828;SDS011;35723;51.194;5.112;2022-10-16T01:44:47;5.03;;;2.05;;
49828;SDS011;35723;51.194;5.112;2022-10-16T01:47:13;7.35;;;1.98;;
49828;SDS011;35723;51.194;5.112;2022-10-16T01:49:40;4.40;;;2.10;;
49828;SDS011;35723;51.194;5.112;2022-10-16T01:52:09;5.85;;;1.95;;
49828;SDS011;35723;51.194;5.112;2022-10-16T01:54:40;5.43;;;1.90;;
49828;SDS011;35723;51.194;5.112;2022-10-16T01:57:10;4.80;;;1.95;;
49828;SDS011;35723;51.194;5.112;2022-10-16T01:59:39;6.53;;;1.98;;
49828;SDS011;35723;51.194;5.112;2022-10-16T02:02:09;3.90;;;2.00;;
49828;SDS011;35723;51.194;5.112;2022-10-16T02:04:38;5.80;;;1.95;;
49828;SDS011;35723;51.194;5.112;2022-10-16T02:07:07;5.00;;;1.67;;
49828;SDS011;35723;51.194;5.112;2022-10-16T02:09:33;5.75;;;2.10;;
49828;SDS011;35723;51.194;5.112;2022-10-16T02:12:01;4.95;;;1.65;;
49828;SDS011;35723;51.194;5.112;2022-10-16T02:14:36;4.03;;;1.75;;
49828;SDS011;35723;51.194;5.112;2022-10-16T02:17:14;5.03;;;2.05;;
49828;SDS011;35723;51.194;5.112;2022-10-16T02:19:42;10.15;;;2.15;;
49828;SDS011;35723;51.194;5.112;2022-10-16T02:22:09;5.05;;;1.73;;
49828;SDS011;35723;51.194;5.112;2022-10-16T02:24:53;6.00;;;1.92;;
49828;SDS011;35723;51.194;5.112;2022-10-16T02:30:00;4.30;;;1.90;;
49828;SDS011;35723;51.194;5.112;2022-10-16T02:32:33;4.43;;;2.00;;
49828;SDS011;35723;51.194;5.112;2022-10-16T02:35:01;4.13;;;1.80;;
49828;SDS011;35723;51.194;5.112;2022-10-16T02:37:28;3.88;;;1.77;;
49828;SDS011;35723;51.194;5.112;2022-10-16T02:39:56;5.80;;;2.10;;
49828;SDS011;35723;51.194;5.112;2022-10-16T02:42:27;7.00;;;2.03;;
49828;SDS011;35723;51.194;5.112;2022-10-16T02:45:00;4.97;;;2.08;;
49828;SDS011;35723;51.194;5.112;2022-10-16T02:47:26;4.88;;;2.10;;
49828;SDS011;35723;51.194;5.112;2022-10-16T02:49:51;9.30;;;2.17;;
49828;SDS011;35723;51.194;5.112;2022-10-16T02:52:17;5.75;;;2.20;;
49828;SDS011;35723;51.194;5.112;2022-10-16T02:54:43;7.30;;;2.30;;
49828;SDS011;35723;51.194;5.112;2022-10-16T02:57:08;4.07;;;2.13;;
49828;SDS011;35723;51.194;5.112;2022-10-16T02:59:34;6.32;;;2.17;;
49828;SDS011;35723;51.194;5.112;2022-10-16T03:01:59;5.60;;;2.10;;
49828;SDS011;35723;51.194;5.112;2022-10-16T03:04:25;5.88;;;2.20;;
49828;SDS011;35723;51.194;5.112;2022-10-16T03:06:50;5.90;;;2.13;;
49828;SDS011;35723;51.194;5.112;2022-10-16T03:09:16;7.03;;;2.40;;
49828;SDS011;35723;51.194;5.112;2022-10-16T03:11:42;6.95;;;2.28;;
49828;SDS011;35723;51.194;5.112;2022-10-16T03:14:07;7.28;;;2.50;;
49828;SDS011;35723;51.194;5.112;2022-10-16T03:16:33;6.03;;;2.17;;
49828;SDS011;35723;51.194;5.112;2022-10-16T03:18:58;8.23;;;2.35;;
49828;SDS011;35723;51.194;5.112;2022-10-16T03:21:24;5.95;;;2.10;;
49828;SDS011;35723;51.194;5.112;2022-10-16T03:23:50;7.07;;;2.30;;
49828;SDS011;35723;51.194;5.112;2022-10-16T03:26:15;6.70;;;2.40;;
49828;SDS011;35723;51.194;5.112;2022-10-16T03:28:41;6.30;;;2.00;;
49828;SDS011;35723;51.194;5.112;2022-10-16T03:31:06;8.52;;;2.13;;
49828;SDS011;35723;51.194;5.112;2022-10-16T03:33:33;6.97;;;2.20;;
49828;SDS011;35723;51.194;5.112;2022-10-16T03:35:58;6.78;;;2.15;;
49828;SDS011;35723;51.194;5.112;2022-10-16T03:38:24;6.50;;;2.55;;
49828;SDS011;35723;51.194;5.112;2022-10-16T03:40:49;4.85;;;2.30;;
49828;SDS011;35723;51.194;5.112;2022-10-16T03:43:15;5.15;;;2.38;;
49828;SDS011;35723;51.194;5.112;2022-10-16T03:45:41;10.73;;;2.55;;
49828;SDS011;35723;51.194;5.112;2022-10-16T03:48:06;8.65;;;2.50;;
49828;SDS011;35723;51.194;5.112;2022-10-16T03:50:32;8.82;;;2.70;;
49828;SDS011;35723;51.194;5.112;2022-10-16T03:52:58;6.35;;;2.35;;
49828;SDS011;35723;51.194;5.112;2022-10-16T03:55:23;8.75;;;2.38;;
49828;SDS011;35723;51.194;5.112;2022-10-16T03:57:49;5.43;;;2.20;;
49828;SDS011;35723;51.194;5.112;2022-10-16T04:00:14;9.65;;;2.50;;
49828;SDS011;35723;51.194;5.112;2022-10-16T04:02:40;6.35;;;2.60;;
49828;SDS011;35723;51.194;5.112;2022-10-16T04:05:06;8.05;;;2.70;;
49828;SDS011;35723;51.194;5.112;2022-10-16T04:07:32;6.57;;;2.45;;
49828;SDS011;35723;51.194;5.112;2022-10-16T04:09:58;8.35;;;2.50;;
49828;SDS011;35723;51.194;5.112;2022-10-16T04:12:24;9.45;;;2.60;;
49828;SDS011;35723;51.194;5.112;2022-10-16T04:14:50;9.30;;;2.50;;
49828;SDS011;35723;51.194;5.112;2022-10-16T04:17:16;6.70;;;2.40;;
49828;SDS011;35723;51.194;5.112;2022-10-16T04:19:41;11.07;;;2.70;;
49828;SDS011;35723;51.194;5.112;2022-10-16T04:22:07;9.18;;;2.97;;
49828;SDS011;35723;51.194;5.112;2022-10-16T04:24:33;7.65;;;2.60;;
49828;SDS011;35723;51.194;5.112;2022-10-16T04:26:58;8.77;;;2.70;;
49828;SDS011;35723;51.194;5.112;2022-10-16T04:29:24;9.98;;;2.90;;
49828;SDS011;35723;51.194;5.112;2022-10-16T04:31:49;10.18;;;2.72;;
49828;SDS011;35723;51.194;5.112;2022-10-16T04:34:15;8.07;;;2.70;;
49828;SDS011;35723;51.194;5.112;2022-10-16T04:36:41;10.93;;;2.83;;
49828;SDS011;35723;51.194;5.112;2022-10-16T04:39:06;12.38;;;3.08;;
49828;SDS011;35723;51.194;5.112;2022-10-16T04:41:32;15.77;;;2.88;;
49828;SDS011;35723;51.194;5.112;2022-10-16T04:43:58;11.35;;;3.40;;
49828;SDS011;35723;51.194;5.112;2022-10-16T04:46:23;8.63;;;2.67;;
49828;SDS011;35723;51.194;5.112;2022-10-16T04:48:49;10.63;;;3.10;;
49828;SDS011;35723;51.194;5.112;2022-10-16T04:51:15;8.45;;;2.83;;
49828;SDS011;35723;51.194;5.112;2022-10-16T04:53:40;7.65;;;2.97;;
49828;SDS011;35723;51.194;5.112;2022-10-16T04:56:06;13.07;;;3.08;;
49828;SDS011;35723;51.194;5.112;2022-10-16T04:58:31;13.43;;;3.00;;
49828;SDS011;35723;51.194;5.112;2022-10-16T05:00:58;9.65;;;2.72;;
49828;SDS011;35723;51.194;5.112;2022-10-16T05:03:23;10.68;;;2.88;;
49828;SDS011;35723;51.194;5.112;2022-10-16T05:05:49;11.10;;;2.85;;
49828;SDS011;35723;51.194;5.112;2022-10-16T05:08:15;13.35;;;3.20;;
49828;SDS011;35723;51.194;5.112;2022-10-16T05:10:42;8.93;;;2.70;;
49828;SDS011;35723;51.194;5.112;2022-10-16T05:13:09;8.95;;;2.80;;
49828;SDS011;35723;51.194;5.112;2022-10-16T05:15:35;11.90;;;2.90;;
49828;SDS011;35723;51.194;5.112;2022-10-16T05:18:01;9.00;;;2.75;;
49828;SDS011;35723;51.194;5.112;2022-10-16T05:20:26;10.20;;;2.55;;
49828;SDS011;35723;51.194;5.112;2022-10-16T05:22:52;6.18;;;2.63;;
49828;SDS011;35723;51.194;5.112;2022-10-16T05:25:18;5.82;;;2.42;;
49828;SDS011;35723;51.194;5.112;2022-10-16T05:27:47;7.97;;;2.50;;
49828;SDS011;35723;51.194;5.112;2022-10-16T05:30:13;11.20;;;2.80;;
49828;SDS011;35723;51.194;5.112;2022-10-16T05:32:39;10.00;;;2.80;;
49828;SDS011;35723;51.194;5.112;2022-10-16T05:35:05;9.38;;;2.80;;
49828;SDS011;35723;51.194;5.112;2022-10-16T05:37:30;6.97;;;2.80;;
49828;SDS011;35723;51.194;5.112;2022-10-16T05:39:57;8.20;;;2.70;;
49828;SDS011;35723;51.194;5.112;2022-10-16T05:42:22;9.00;;;2.78;;
49828;SDS011;35723;51.194;5.112;2022-10-16T05:44:48;10.52;;;2.85;;
49828;SDS011;35723;51.194;5.112;2022-10-16T05:47:13;8.45;;;2.80;;
49828;SDS011;35723;51.194;5.112;2022-10-16T05:49:39;11.65;;;2.70;;
49828;SDS011;35723;51.194;5.112;2022-10-16T05:52:05;9.07;;;3.05;;
49828;SDS011;35723;51.194;5.112;2022-10-16T05:54:31;8.18;;;2.75;;
49828;SDS011;35723;51.194;5.112;2022-10-16T05:56:56;7.78;;;3.15;;
49828;SDS011;35723;51.194;5.112;2022-10-16T05:59:22;7.95;;;3.00;;
49828;SDS011;35723;51.194;5.112;2022-10-16T06:01:48;7.10;;;2.60;;
49828;SDS011;35723;51.194;5.112;2022-10-16T06:04:14;5.85;;;2.20;;
49828;SDS011;35723;51.194;5.112;2022-10-16T06:06:39;9.65;;;2.65;;
49828;SDS011;35723;51.194;5.112;2022-10-16T06:09:05;7.95;;;2.65;;
49828;SDS011;35723;51.194;5.112;2022-10-16T06:11:31;10.90;;;3.00;;
49828;SDS011;35723;51.194;5.112;2022-10-16T06:13:59;6.72;;;2.80;;
49828;SDS011;35723;51.194;5.112;2022-10-16T06:16:28;7.25;;;2.75;;
49828;SDS011;35723;51.194;5.112;2022-10-16T06:18:55;6.10;;;2.53;;
49828;SDS011;35723;51.194;5.112;2022-10-16T06:21:22;7.03;;;2.60;;
49828;SDS011;35723;51.194;5.112;2022-10-16T06:23:51;6.60;;;2.60;;
49828;SDS011;35723;51.194;5.112;2022-10-16T06:26:19;8.82;;;3.08;;
49828;SDS011;35723;51.194;5.112;2022-10-16T06:28:46;5.80;;;2.65;;
49828;SDS011;35723;51.194;5.112;2022-10-16T06:31:12;6.05;;;2.72;;
49828;SDS011;35723;51.194;5.112;2022-10-16T06:33:39;10.57;;;3.03;;
49828;SDS011;35723;51.194;5.112;2022-10-16T06:36:09;9.57;;;2.80;;
49828;SDS011;35723;51.194;5.112;2022-10-16T06:38:41;8.13;;;2.83;;
49828;SDS011;35723;51.194;5.112;2022-10-16T06:41:09;6.68;;;2.80;;
49828;SDS011;35723;51.194;5.112;2022-10-16T06:43:36;7.55;;;2.67;;
49828;SDS011;35723;51.194;5.112;2022-10-16T06:46:03;7.50;;;2.85;;
49828;SDS011;35723;51.194;5.112;2022-10-16T06:48:30;6.72;;;2.55;;
49828;SDS011;35723;51.194;5.112;2022-10-16T06:53:26;8.18;;;3.10;;
49828;SDS011;35723;51.194;5.112;2022-10-16T06:55:54;8.38;;;2.90;;
49828;SDS011;35723;51.194;5.112;2022-10-16T06:58:19;10.38;;;3.00;;
49828;SDS011;35723;51.194;5.112;2022-10-16T07:00:46;8.35;;;2.97;;
49828;SDS011;35723;51.194;5.112;2022-10-16T07:03:11;8.18;;;2.67;;
49828;SDS011;35723;51.194;5.112;2022-10-16T07:05:41;10.80;;;2.83;;
49828;SDS011;35723;51.194;5.112;2022-10-16T07:08:07;8.10;;;3.17;;
49828;SDS011;35723;51.194;5.112;2022-10-16T07:10:33;9.07;;;2.95;;
49828;SDS011;35723;51.194;5.112;2022-10-16T07:12:59;10.75;;;2.97;;
49828;SDS011;35723;51.194;5.112;2022-10-16T07:15:25;11.95;;;3.00;;
49828;SDS011;35723;51.194;5.112;2022-10-16T07:17:51;16.25;;;3.20;;
49828;SDS011;35723;51.194;5.112;2022-10-16T07:20:17;6.93;;;2.60;;
49828;SDS011;35723;51.194;5.112;2022-10-16T07:22:43;10.07;;;2.85;;
49828;SDS011;35723;51.194;5.112;2022-10-16T07:25:14;12.57;;;2.80;;
49828;SDS011;35723;51.194;5.112;2022-10-16T07:27:40;8.02;;;2.75;;
49828;SDS011;35723;51.194;5.112;2022-10-16T07:30:06;13.07;;;3.13;;
49828;SDS011;35723;51.194;5.112;2022-10-16T07:32:32;11.60;;;2.90;;
49828;SDS011;35723;51.194;5.112;2022-10-16T07:34:57;7.60;;;2.78;;
49828;SDS011;35723;51.194;5.112;2022-10-16T07:37:23;9.00;;;2.90;;
49828;SDS011;35723;51.194;5.112;2022-10-16T07:39:49;9.27;;;2.72;;
49828;SDS011;35723;51.194;5.112;2022-10-16T07:42:14;17.63;;;3.13;;
49828;SDS011;35723;51.194;5.112;2022-10-16T07:44:40;8.98;;;2.58;;
49828;SDS011;35723;51.194;5.112;2022-10-16T07:47:06;9.32;;;2.50;;
49828;SDS011;35723;51.194;5.112;2022-10-16T07:49:32;6.40;;;2.30;;
49828;SDS011;35723;51.194;5.112;2022-10-16T07:51:57;6.32;;;2.30;;
49828;SDS011;35723;51.194;5.112;2022-10-16T07:54:23;8.40;;;2.70;;
49828;SDS011;35723;51.194;5.112;2022-10-16T07:56:49;7.13;;;2.25;;
49828;SDS011;35723;51.194;5.112;2022-10-16T07:59:14;9.90;;;2.50;;
49828;SDS011;35723;51.194;5.112;2022-10-16T08:01:40;7.78;;;2.35;;
49828;SDS011;35723;51.194;5.112;2022-10-16T08:04:07;8.93;;;2.47;;
49828;SDS011;35723;51.194;5.112;2022-10-16T08:06:35;8.43;;;2.55;;
49828;SDS011;35723;51.194;5.112;2022-10-16T08:09:02;10.52;;;2.47;;
49828;SDS011;35723;51.194;5.112;2022-10-16T08:11:28;7.47;;;2.00;;
49828;SDS011;35723;51.194;5.112;2022-10-16T08:13:54;5.85;;;2.15;;
49828;SDS011;35723;51.194;5.112;2022-10-16T08:16:19;10.75;;;2.05;;
49828;SDS011;35723;51.194;5.112;2022-10-16T08:18:45;9.70;;;2.55;;
49828;SDS011;35723;51.194;5.112;2022-10-16T08:21:13;7.05;;;1.90;;
49828;SDS011;35723;51.194;5.112;2022-10-16T08:23:41;6.28;;;1.98;;
49828;SDS011;35723;51.194;5.112;2022-10-16T08:26:07;6.13;;;1.92;;
49828;SDS011;35723;51.194;5.112;2022-10-16T08:28:34;5.93;;;1.98;;
49828;SDS011;35723;51.194;5.112;2022-10-16T08:31:07;5.45;;;1.95;;
49828;SDS011;35723;51.194;5.112;2022-10-16T08:33:38;5.90;;;1.73;;
49828;SDS011;35723;51.194;5.112;2022-10-16T08:36:05;5.72;;;1.70;;
49828;SDS011;35723;51.194;5.112;2022-10-16T08:38:32;10.25;;;2.05;;
49828;SDS011;35723;51.194;5.112;2022-10-16T08:41:08;5.57;;;1.75;;
49828;SDS011;35723;51.194;5.112;2022-10-16T08:46:31;7.90;;;1.98;;
49828;SDS011;35723;51.194;5.112;2022-10-16T08:49:23;8.05;;;2.00;;
49828;SDS011;35723;51.194;5.112;2022-10-16T08:51:49;6.20;;;2.10;;
49828;SDS011;35723;51.194;5.112;2022-10-16T08:56:56;12.60;;;2.72;;
49828;SDS011;35723;51.194;5.112;2022-10-16T08:59:26;6.35;;;1.73;;
49828;SDS011;35723;51.194;5.112;2022-10-16T09:01:51;12.00;;;2.03;;
49828;SDS011;35723;51.194;5.112;2022-10-16T09:07:04;8.77;;;1.85;;
49828;SDS011;35723;51.194;5.112;2022-10-16T09:15:24;8.40;;;1.92;;
49828;SDS011;35723;51.194;5.112;2022-10-16T09:18:29;11.73;;;2.00;;
49828;SDS011;35723;51.194;5.112;2022-10-16T09:23:42;7.95;;;1.70;;
49828;SDS011;35723;51.194;5.112;2022-10-16T09:26:09;12.02;;;2.25;;
49828;SDS011;35723;51.194;5.112;2022-10-16T09:28:37;7.43;;;1.60;;
49828;SDS011;35723;51.194;5.112;2022-10-16T09:31:03;7.63;;;1.85;;
49828;SDS011;35723;51.194;5.112;2022-10-16T09:33:30;7.25;;;1.90;;
49828;SDS011;35723;51.194;5.112;2022-10-16T09:36:00;11.93;;;2.28;;
49828;SDS011;35723;51.194;5.112;2022-10-16T09:38:30;10.52;;;2.13;;
49828;SDS011;35723;51.194;5.112;2022-10-16T09:40:57;8.60;;;2.00;;
49828;SDS011;35723;51.194;5.112;2022-10-16T09:43:33;9.50;;;1.90;;
49828;SDS011;35723;51.194;5.112;2022-10-16T09:48:33;10.35;;;1.98;;
49828;SDS011;35723;51.194;5.112;2022-10-16T09:51:04;8.48;;;1.90;;
49828;SDS011;35723;51.194;5.112;2022-10-16T09:53:37;8.60;;;2.03;;
49828;SDS011;35723;51.194;5.112;2022-10-16T09:56:09;8.57;;;1.92;;
49828;SDS011;35723;51.194;5.112;2022-10-16T09:58:41;9.98;;;2.00;;
49828;SDS011;35723;51.194;5.112;2022-10-16T10:01:11;10.88;;;2.00;;
49828;SDS011;35723;51.194;5.112;2022-10-16T10:03:41;11.10;;;1.90;;
49828;SDS011;35723;51.194;5.112;2022-10-16T10:06:16;10.15;;;1.70;;
49828;SDS011;35723;51.194;5.112;2022-10-16T10:08:56;14.57;;;1.98;;
49828;SDS011;35723;51.194;5.112;2022-10-16T10:19:36;8.32;;;2.00;;
49828;SDS011;35723;51.194;5.112;2022-10-16T10:27:39;9.05;;;1.70;;
49828;SDS011;35723;51.194;5.112;2022-10-16T10:33:38;8.70;;;2.15;;
49828;SDS011;35723;51.194;5.112;2022-10-16T10:38:50;10.75;;;1.90;;
49828;SDS011;35723;51.194;5.112;2022-10-16T10:52:44;8.07;;;1.85;;
49828;SDS011;35723;51.194;5.112;2022-10-16T10:55:31;13.30;;;2.05;;
49828;SDS011;35723;51.194;5.112;2022-10-16T11:01:09;8.50;;;1.80;;
49828;SDS011;35723;51.194;5.112;2022-10-16T11:04:01;12.90;;;1.80;;
49828;SDS011;35723;51.194;5.112;2022-10-16T11:06:40;12.75;;;1.80;;
49828;SDS011;35723;51.194;5.112;2022-10-16T11:19:48;12.13;;;2.15;;
49828;SDS011;35723;51.194;5.112;2022-10-16T11:22:38;9.10;;;1.55;;
49828;SDS011;35723;51.194;5.112;2022-10-16T11:27:56;8.55;;;1.75;;
49828;SDS011;35723;51.194;5.112;2022-10-16T11:30:45;13.80;;;1.70;;
49828;SDS011;35723;51.194;5.112;2022-10-16T11:50:43;11.20;;;1.90;;
49828;SDS011;35723;51.194;5.112;2022-10-16T11:53:24;7.28;;;1.73;;
49828;SDS011;35723;51.194;5.112;2022-10-16T11:56:04;10.15;;;1.70;;
49828;SDS011;35723;51.194;5.112;2022-10-16T11:58:35;10.10;;;1.58;;
49828;SDS011;35723;51.194;5.112;2022-10-16T12:01:16;5.63;;;1.23;;
49828;SDS011;35723;51.194;5.112;2022-10-16T12:03:47;6.07;;;1.45;;
49828;SDS011;35723;51.194;5.112;2022-10-16T12:06:50;8.35;;;1.52;;
49828;SDS011;35723;51.194;5.112;2022-10-16T12:09:26;8.10;;;1.60;;
49828;SDS011;35723;51.194;5.112;2022-10-16T12:11:56;6.28;;;1.67;;
49828;SDS011;35723;51.194;5.112;2022-10-16T12:16:58;8.48;;;1.95;;
49828;SDS011;35723;51.194;5.112;2022-10-16T12:19:57;6.30;;;1.70;;
49828;SDS011;35723;51.194;5.112;2022-10-16T12:22:24;10.55;;;1.67;;
49828;SDS011;35723;51.194;5.112;2022-10-16T12:24:54;6.80;;;1.50;;
49828;SDS011;35723;51.194;5.112;2022-10-16T12:27:30;7.65;;;1.60;;
49828;SDS011;35723;51.194;5.112;2022-10-16T12:29:58;10.77;;;1.55;;
49828;SDS011;35723;51.194;5.112;2022-10-16T12:32:35;8.75;;;1.90;;
49828;SDS011;35723;51.194;5.112;2022-10-16T12:35:03;8.07;;;1.80;;
49828;SDS011;35723;51.194;5.112;2022-10-16T12:37:31;8.35;;;1.75;;
49828;SDS011;35723;51.194;5.112;2022-10-16T12:39:59;8.95;;;1.95;;
49828;SDS011;35723;51.194;5.112;2022-10-16T12:42:36;11.00;;;1.70;;
49828;SDS011;35723;51.194;5.112;2022-10-16T12:45:02;8.27;;;1.70;;
49828;SDS011;35723;51.194;5.112;2022-10-16T12:48:02;8.70;;;1.50;;
49828;SDS011;35723;51.194;5.112;2022-10-16T12:50:42;9.13;;;2.00;;
49828;SDS011;35723;51.194;5.112;2022-10-16T12:53:24;9.80;;;1.67;;
49828;SDS011;35723;51.194;5.112;2022-10-16T12:56:04;8.38;;;1.70;;
49828;SDS011;35723;51.194;5.112;2022-10-16T12:58:41;11.80;;;1.77;;
49828;SDS011;35723;51.194;5.112;2022-10-16T13:07:15;14.55;;;4.57;;
49828;SDS011;35723;51.194;5.112;2022-10-16T13:10:21;15.57;;;3.80;;
49828;SDS011;35723;51.194;5.112;2022-10-16T13:18:21;10.63;;;1.90;;
49828;SDS011;35723;51.194;5.112;2022-10-16T13:23:27;10.32;;;2.10;;
49828;SDS011;35723;51.194;5.112;2022-10-16T13:28:52;7.05;;;1.60;;
49828;SDS011;35723;51.194;5.112;2022-10-16T13:31:19;9.13;;;1.50;;
49828;SDS011;35723;51.194;5.112;2022-10-16T13:33:49;6.85;;;1.80;;
49828;SDS011;35723;51.194;5.112;2022-10-16T13:37:15;4.97;;;1.50;;
49828;SDS011;35723;51.194;5.112;2022-10-16T13:39:19;11.00;;;2.80;;
49828;SDS011;35723;51.194;5.112;2022-10-16T13:42:01;8.13;;;3.20;;
49828;SDS011;35723;51.194;5.112;2022-10-16T13:44:31;6.57;;;2.47;;
49828;SDS011;35723;51.194;5.112;2022-10-16T13:47:42;7.60;;;2.05;;
49828;SDS011;35723;51.194;5.112;2022-10-16T13:50:05;6.22;;;1.70;;
49828;SDS011;35723;51.194;5.112;2022-10-16T13:52:36;4.82;;;1.58;;
49828;SDS011;35723;51.194;5.112;2022-10-16T13:55:03;5.20;;;1.65;;
49828;SDS011;35723;51.194;5.112;2022-10-16T13:57:39;9.98;;;3.28;;
49828;SDS011;35723;51.194;5.112;2022-10-16T14:00:18;7.95;;;2.60;;
49828;SDS011;35723;51.194;5.112;2022-10-16T14:02:49;7.68;;;2.20;;
49828;SDS011;35723;51.194;5.112;2022-10-16T14:05:18;7.63;;;2.28;;
49828;SDS011;35723;51.194;5.112;2022-10-16T14:07:43;8.20;;;2.47;;
49828;SDS011;35723;51.194;5.112;2022-10-16T14:10:18;9.80;;;2.17;;
49828;SDS011;35723;51.194;5.112;2022-10-16T14:12:54;7.63;;;2.42;;
49828;SDS011;35723;51.194;5.112;2022-10-16T14:15:27;7.20;;;2.20;;
49828;SDS011;35723;51.194;5.112;2022-10-16T14:17:55;7.97;;;1.92;;
49828;SDS011;35723;51.194;5.112;2022-10-16T14:20:24;11.10;;;2.33;;
49828;SDS011;35723;51.194;5.112;2022-10-16T14:23:03;8.70;;;2.03;;
49828;SDS011;35723;51.194;5.112;2022-10-16T14:25:51;8.98;;;2.40;;
49828;SDS011;35723;51.194;5.112;2022-10-16T14:28:18;5.80;;;2.00;;
49828;SDS011;35723;51.194;5.112;2022-10-16T14:30:50;9.20;;;2.58;;
49828;SDS011;35723;51.194;5.112;2022-10-16T14:33:22;9.88;;;2.53;;
49828;SDS011;35723;51.194;5.112;2022-10-16T14:36:03;7.32;;;2.10;;
49828;SDS011;35723;51.194;5.112;2022-10-16T14:38:37;9.40;;;2.40;;
49828;SDS011;35723;51.194;5.112;2022-10-16T14:41:04;13.85;;;2.40;;
49828;SDS011;35723;51.194;5.112;2022-10-16T14:43:32;11.77;;;2.78;;
49828;SDS011;35723;51.194;5.112;2022-10-16T14:45:58;8.07;;;2.30;;
49828;SDS011;35723;51.194;5.112;2022-10-16T14:48:24;8.10;;;2.20;;
49828;SDS011;35723;51.194;5.112;2022-10-16T14:50:49;5.78;;;2.33;;
49828;SDS011;35723;51.194;5.112;2022-10-16T14:53:15;10.52;;;2.20;;
49828;SDS011;35723;51.194;5.112;2022-10-16T14:55:41;6.63;;;2.30;;
49828;SDS011;35723;51.194;5.112;2022-10-16T14:58:21;6.32;;;2.03;;
49828;SDS011;35723;51.194;5.112;2022-10-16T15:00:47;7.70;;;2.20;;
49828;SDS011;35723;51.194;5.112;2022-10-16T15:03:13;10.02;;;2.38;;
49828;SDS011;35723;51.194;5.112;2022-10-16T15:05:39;9.57;;;1.80;;
49828;SDS011;35723;51.194;5.112;2022-10-16T15:08:05;6.53;;;1.75;;
49828;SDS011;35723;51.194;5.112;2022-10-16T15:10:31;7.95;;;1.83;;
49828;SDS011;35723;51.194;5.112;2022-10-16T15:13:00;4.85;;;1.65;;
49828;SDS011;35723;51.194;5.112;2022-10-16T15:15:33;7.90;;;2.30;;
49828;SDS011;35723;51.194;5.112;2022-10-16T15:18:01;17.33;;;6.30;;
49828;SDS011;35723;51.194;5.112;2022-10-16T15:20:28;15.02;;;5.55;;
49828;SDS011;35723;51.194;5.112;2022-10-16T15:22:57;11.63;;;3.70;;
49828;SDS011;35723;51.194;5.112;2022-10-16T15:25:30;10.68;;;3.22;;
49828;SDS011;35723;51.194;5.112;2022-10-16T15:28:06;8.23;;;2.55;;
49828;SDS011;35723;51.194;5.112;2022-10-16T15:30:33;5.70;;;2.05;;
49828;SDS011;35723;51.194;5.112;2022-10-16T15:33:00;5.28;;;2.20;;
49828;SDS011;35723;51.194;5.112;2022-10-16T15:35:26;7.90;;;2.15;;
49828;SDS011;35723;51.194;5.112;2022-10-16T15:37:52;7.80;;;2.08;;
49828;SDS011;35723;51.194;5.112;2022-10-16T15:40:18;11.88;;;2.42;;
49828;SDS011;35723;51.194;5.112;2022-10-16T15:42:45;12.25;;;2.40;;
49828;SDS011;35723;51.194;5.112;2022-10-16T15:45:11;8.45;;;2.20;;
49828;SDS011;35723;51.194;5.112;2022-10-16T15:47:38;9.15;;;2.33;;
49828;SDS011;35723;51.194;5.112;2022-10-16T15:50:06;8.77;;;2.53;;
49828;SDS011;35723;51.194;5.112;2022-10-16T15:52:32;10.32;;;2.50;;
49828;SDS011;35723;51.194;5.112;2022-10-16T15:54:58;10.77;;;2.50;;
49828;SDS011;35723;51.194;5.112;2022-10-16T15:57:24;12.55;;;2.50;;
49828;SDS011;35723;51.194;5.112;2022-10-16T15:59:50;8.45;;;2.60;;
49828;SDS011;35723;51.194;5.112;2022-10-16T16:02:15;10.48;;;2.50;;
49828;SDS011;35723;51.194;5.112;2022-10-16T16:04:41;9.45;;;2.58;;
49828;SDS011;35723;51.194;5.112;2022-10-16T16:07:07;9.85;;;2.70;;
49828;SDS011;35723;51.194;5.112;2022-10-16T16:09:33;10.93;;;2.72;;
49828;SDS011;35723;51.194;5.112;2022-10-16T16:11:59;12.38;;;3.00;;
49828;SDS011;35723;51.194;5.112;2022-10-16T16:14:26;8.65;;;2.65;;
49828;SDS011;35723;51.194;5.112;2022-10-16T16:16:53;12.55;;;2.92;;
49828;SDS011;35723;51.194;5.112;2022-10-16T16:19:19;11.85;;;2.83;;
49828;SDS011;35723;51.194;5.112;2022-10-16T16:21:46;15.40;;;2.90;;
49828;SDS011;35723;51.194;5.112;2022-10-16T16:24:12;12.90;;;3.15;;
49828;SDS011;35723;51.194;5.112;2022-10-16T16:26:38;9.13;;;3.00;;
49828;SDS011;35723;51.194;5.112;2022-10-16T16:29:08;10.55;;;3.30;;
49828;SDS011;35723;51.194;5.112;2022-10-16T16:31:38;15.15;;;3.15;;
49828;SDS011;35723;51.194;5.112;2022-10-16T16:34:04;12.43;;;3.30;;
49828;SDS011;35723;51.194;5.112;2022-10-16T16:36:30;8.98;;;3.30;;
49828;SDS011;35723;51.194;5.112;2022-10-16T16:38:57;11.52;;;3.30;;
49828;SDS011;35723;51.194;5.112;2022-10-16T16:41:24;13.73;;;3.22;;
49828;SDS011;35723;51.194;5.112;2022-10-16T16:43:51;7.80;;;3.15;;
49828;SDS011;35723;51.194;5.112;2022-10-16T16:46:18;9.32;;;3.10;;
49828;SDS011;35723;51.194;5.112;2022-10-16T16:48:44;11.15;;;3.25;;
49828;SDS011;35723;51.194;5.112;2022-10-16T16:51:11;13.35;;;3.53;;
49828;SDS011;35723;51.194;5.112;2022-10-16T16:53:46;13.52;;;3.50;;